Time;durP1;ratioP1;P1;durP2;ratioP2;P2;SDS_P1;SDS_P2;PMS_P1;PMS_P2;Temp;Humidity;BMP_temperature;BMP_pressure;BME280_temperature;BME280_humidity;BME280_pressure;Samples;Min_cycle;Max_cycle;Signal;HPM_P1;HPM_P2
2021/12/13 00:01:44;;;;;;;18.38;14.43;;;10.50;93.00;;;;;;5003989;28;20077;-72
2021/12/13 00:04:20;;;;;;;19.98;14.52;;;10.40;92.90;;;;;;5006018;28;20042;-72
2021/12/13 00:06:51;;;;;;;20.83;15.73;;;10.40;92.90;;;;;;5024879;28;20034;-74
2021/12/13 00:09:22;;;;;;;19.10;15.60;;;10.40;92.90;;;;;;5008274;28;20042;-73
2021/12/13 00:11:56;;;;;;;20.67;16.60;;;10.40;92.90;;;;;;5006093;28;20027;-72
2021/12/13 00:14:28;;;;;;;18.75;16.15;;;10.40;92.90;;;;;;5011211;28;20049;-74
2021/12/13 00:17:23;;;;;;;21.92;15.88;;;10.40;92.90;;;;;;5006334;28;20030;-73
2021/12/13 00:20:07;;;;;;;;;;;10.40;92.90;;;;;;5011457;28;20062;-75
2021/12/13 00:22:51;;;;;;;21.08;16.67;;;10.40;92.90;;;;;;5043263;28;20317;-73
2021/12/13 00:25:25;;;;;;;20.70;16.50;;;10.40;92.90;;;;;;5007067;28;20034;-72
2021/12/13 00:28:13;;;;;;;21.60;17.73;;;10.40;92.90;;;;;;5009061;28;20033;-73
2021/12/13 00:31:17;;;;;;;25.02;18.05;;;10.40;92.90;;;;;;5010950;28;20442;-74
2021/12/13 00:34:21;;;;;;;19.73;16.48;;;10.40;92.80;;;;;;5040537;28;20033;-74
2021/12/13 00:37:13;;;;;;;21.38;17.92;;;10.40;92.80;;;;;;4970901;28;20035;-75
2021/12/13 00:39:56;;;;;;;21.83;17.27;;;10.40;92.80;;;;;;5002789;28;20053;-72
2021/12/13 00:42:29;;;;;;;21.58;16.45;;;10.40;92.80;;;;;;5010683;28;20033;-74
2021/12/13 00:45:05;;;;;;;21.98;17.65;;;10.40;92.80;;;;;;5006890;28;20038;-74
2021/12/13 00:47:35;;;;;;;21.58;18.20;;;10.40;92.80;;;;;;5017181;28;20029;-74
2021/12/13 00:50:24;;;;;;;21.63;17.15;;;10.40;92.70;;;;;;5031608;28;20042;-73
2021/12/13 00:52:52;;;;;;;21.27;18.25;;;10.40;92.60;;;;;;5007784;28;20030;-74
2021/12/13 00:55:26;;;;;;;22.83;18.67;;;10.40;92.70;;;;;;5008913;28;20047;-72
2021/12/13 00:58:09;;;;;;;22.65;17.85;;;10.40;92.60;;;;;;5008781;28;20074;-73
2021/12/13 01:00:48;;;;;;;22.30;17.35;;;10.40;92.50;;;;;;5011960;28;20038;-73
2021/12/13 01:03:24;;;;;;;20.10;15.75;;;10.40;92.50;;;;;;5012694;28;20030;-72
2021/12/13 01:06:28;;;;;;;18.63;15.52;;;10.40;92.50;;;;;;5009827;28;20069;-74
2021/12/13 01:09:38;;;;;;;19.45;16.85;;;10.40;92.40;;;;;;5011596;28;20042;-73
2021/12/13 01:12:08;;;;;;;21.00;16.10;;;10.40;92.30;;;;;;5011295;28;20290;-73
2021/12/13 01:14:42;;;;;;;21.05;16.30;;;10.40;92.30;;;;;;5006463;28;20034;-73
2021/12/13 01:17:25;;;;;;;;;;;10.40;92.30;;;;;;5010707;28;20034;-72
2021/12/13 01:20:05;;;;;;;22.38;15.50;;;10.30;92.30;;;;;;5013203;28;20111;-72
2021/12/13 01:22:50;;;;;;;20.65;16.38;;;10.40;92.30;;;;;;5016323;28;20041;-72
2021/12/13 01:25:39;;;;;;;23.35;17.10;;;10.40;92.20;;;;;;5008656;28;20545;-74
2021/12/13 01:28:13;;;;;;;20.92;16.67;;;10.40;92.10;;;;;;5013519;28;20030;-75
2021/12/13 01:30:42;;;;;;;;;;;10.40;92.10;;;;;;5009881;28;20050;-74
2021/12/13 01:33:11;;;;;;;26.52;16.98;;;10.30;92.10;;;;;;5020067;28;19929;-72
2021/12/13 01:35:42;;;;;;;22.33;18.60;;;10.40;92.10;;;;;;5008912;28;20125;-72
2021/12/13 01:38:19;;;;;;;21.77;18.45;;;10.40;92.00;;;;;;5006889;28;20030;-72
2021/12/13 01:40:49;;;;;;;22.35;16.75;;;10.30;92.10;;;;;;5008692;28;20042;-73
2021/12/13 01:43:30;;;;;;;22.63;18.27;;;10.40;92.00;;;;;;5009266;28;20046;-71
2021/12/13 01:45:57;;;;;;;22.40;18.75;;;10.40;92.10;;;;;;5012725;28;20037;-72
2021/12/13 01:48:32;;;;;;;26.02;20.45;;;10.30;92.00;;;;;;5008130;28;20039;-72
2021/12/13 01:51:06;;;;;;;;;;;10.30;92.00;;;;;;5008208;28;20042;-73
2021/12/13 01:53:43;;;;;;;24.67;19.75;;;10.30;92.00;;;;;;5009226;28;20211;-72
2021/12/13 01:59:15;;;;;;;24.85;20.15;;;10.30;91.90;;;;;;5000585;28;20436;-72
2021/12/13 02:01:43;;;;;;;27.00;20.33;;;10.30;91.80;;;;;;5012124;28;20027;-73
2021/12/13 02:04:13;;;;;;;25.73;20.38;;;10.30;91.90;;;;;;5006616;28;20074;-73
2021/12/13 02:06:44;;;;;;;26.83;20.05;;;10.30;91.90;;;;;;5006210;28;20545;-73
2021/12/13 02:09:27;;;;;;;26.67;20.65;;;10.30;91.90;;;;;;5013991;28;20157;-74
2021/12/13 02:11:58;;;;;;;25.60;20.73;;;10.30;91.90;;;;;;5008549;28;20086;-73
2021/12/13 02:14:29;;;;;;;24.70;20.80;;;10.30;91.90;;;;;;5007499;28;20049;-74
2021/12/13 02:17:12;;;;;;;22.73;19.13;;;10.30;91.90;;;;;;5009791;28;20263;-73
2021/12/13 02:19:46;;;;;;;24.77;20.00;;;10.30;91.90;;;;;;5008346;28;20095;-73
2021/12/13 02:22:31;;;;;;;;;;;10.30;91.90;;;;;;5010278;28;20038;-73
2021/12/13 02:25:14;;;;;;;25.15;20.10;;;10.30;91.90;;;;;;5001792;28;19988;-73
2021/12/13 02:27:49;;;;;;;30.00;21.15;;;10.20;91.90;;;;;;5023581;28;20042;-73
2021/12/13 02:30:36;;;;;;;25.13;20.33;;;10.20;91.90;;;;;;5014438;28;20066;-74
2021/12/13 02:33:06;;;;;;;27.85;21.73;;;10.30;91.90;;;;;;5022148;28;20039;-72
2021/12/13 02:35:35;;;;;;;26.20;20.75;;;10.30;91.90;;;;;;5010088;28;20105;-72
2021/12/13 02:38:05;;;;;;;25.20;20.23;;;10.20;91.80;;;;;;5010373;28;20046;-73
2021/12/13 02:40:32;;;;;;;23.85;19.90;;;10.20;91.70;;;;;;5009327;28;20027;-72
2021/12/13 02:42:58;;;;;;;26.45;19.48;;;10.30;91.70;;;;;;5006104;28;20065;-73
2021/12/13 02:45:35;;;;;;;25.75;20.27;;;10.20;91.70;;;;;;5008991;28;20041;-74
2021/12/13 02:48:12;;;;;;;23.42;20.17;;;10.20;91.70;;;;;;5004705;28;20039;-72
2021/12/13 02:50:43;;;;;;;26.15;20.20;;;10.30;91.80;;;;;;5006455;28;20038;-74
2021/12/13 02:53:11;;;;;;;26.45;19.95;;;10.30;91.70;;;;;;5009011;28;20039;-73
2021/12/13 02:55:37;;;;;;;25.38;20.13;;;10.20;91.70;;;;;;5003743;28;20046;-74
2021/12/13 02:58:08;;;;;;;24.92;19.75;;;10.20;91.70;;;;;;5010144;28;20042;-73
2021/12/13 03:00:45;;;;;;;25.50;19.48;;;10.20;91.70;;;;;;5015241;28;20034;-74
2021/12/13 03:03:16;;;;;;;28.05;20.20;;;10.30;91.70;;;;;;5014836;28;20045;-73
2021/12/13 03:05:45;;;;;;;26.02;20.23;;;10.30;91.70;;;;;;5002647;28;20034;-73
2021/12/13 03:08:18;;;;;;;26.92;19.40;;;10.20;91.70;;;;;;5006519;28;20034;-73
2021/12/13 03:10:49;;;;;;;27.75;20.70;;;10.20;91.70;;;;;;5003245;28;20094;-72
2021/12/13 03:13:16;;;;;;;25.83;19.92;;;10.20;91.70;;;;;;5007221;28;20050;-73
2021/12/13 03:15:48;;;;;;;27.27;21.33;;;10.20;91.70;;;;;;5012787;28;20097;-74
2021/12/13 03:18:23;;;;;;;25.75;20.33;;;10.20;91.80;;;;;;5014937;28;20034;-71
2021/12/13 03:21:24;;;;;;;26.52;20.67;;;10.20;91.90;;;;;;5008531;28;20026;-73
2021/12/13 03:24:25;;;;;;;25.83;20.23;;;10.20;91.90;;;;;;5011938;28;20099;-73
2021/12/13 03:26:54;;;;;;;24.30;19.60;;;10.20;92.00;;;;;;5013681;28;20105;-72
2021/12/13 03:29:42;;;;;;;28.08;21.48;;;10.20;92.10;;;;;;5010818;28;20038;-74
2021/12/13 03:32:12;;;;;;;27.58;20.63;;;10.20;92.20;;;;;;5010344;28;20025;-73
2021/12/13 03:34:40;;;;;;;29.88;21.92;;;10.20;92.20;;;;;;5008777;28;20115;-73
2021/12/13 03:37:10;;;;;;;26.25;20.50;;;10.20;92.30;;;;;;5011332;28;20057;-74
2021/12/13 03:39:42;;;;;;;25.83;20.00;;;10.20;92.30;;;;;;5004762;28;20021;-73
2021/12/13 03:42:13;;;;;;;28.40;20.98;;;10.10;92.40;;;;;;5048507;28;20038;-74
2021/12/13 03:44:46;;;;;;;29.85;20.40;;;10.10;92.40;;;;;;5009733;28;20041;-74
2021/12/13 03:47:16;;;;;;;26.80;19.85;;;10.20;92.50;;;;;;5002264;28;20057;-73
2021/12/13 03:49:51;;;;;;;29.60;20.45;;;10.10;92.40;;;;;;5015181;28;20120;-72
2021/12/13 03:52:20;;;;;;;27.55;21.05;;;10.20;92.50;;;;;;5008550;28;20030;-72
2021/12/13 03:54:49;;;;;;;26.38;19.92;;;10.10;92.40;;;;;;5007764;28;20114;-73
2021/12/13 03:57:16;;;;;;;27.48;19.95;;;10.10;92.50;;;;;;5007162;28;20034;-74
2021/12/13 03:59:45;;;;;;;25.25;19.77;;;10.20;92.50;;;;;;5015051;28;20026;-75
2021/12/13 04:02:23;;;;;;;29.38;19.73;;;10.10;92.50;;;;;;5010946;28;20035;-73
2021/12/13 04:04:56;;;;;;;28.83;19.98;;;10.10;92.50;;;;;;5026799;28;20069;-73
2021/12/13 04:07:37;;;;;;;25.08;18.65;;;10.20;92.50;;;;;;5007428;28;20042;-72
2021/12/13 04:10:22;;;;;;;25.90;18.73;;;10.10;92.50;;;;;;5008220;28;20039;-73
2021/12/13 04:12:52;;;;;;;26.20;19.30;;;10.10;92.50;;;;;;5008291;28;20054;-74
2021/12/13 04:15:23;;;;;;;25.67;18.23;;;10.10;92.50;;;;;;5010519;28;20046;-72
2021/12/13 04:18:12;;;;;;;22.48;16.90;;;10.10;92.50;;;;;;5016634;28;20568;-74
2021/12/13 04:20:39;;;;;;;21.90;17.27;;;10.10;92.40;;;;;;5004393;28;20405;-72
2021/12/13 04:23:18;;;;;;;25.05;17.85;;;10.10;92.40;;;;;;5022813;28;20042;-74
2021/12/13 04:25:46;;;;;;;22.88;17.05;;;10.10;92.40;;;;;;5009127;28;20060;-74
2021/12/13 04:28:47;;;;;;;24.75;17.25;;;10.10;92.40;;;;;;5011938;28;20045;-73
2021/12/13 04:31:16;;;;;;;24.80;18.27;;;10.10;92.50;;;;;;5007445;28;20041;-73
2021/12/13 04:33:49;;;;;;;23.27;17.65;;;10.10;92.40;;;;;;4994219;28;20047;-73
2021/12/13 04:36:21;;;;;;;24.20;17.60;;;10.10;92.40;;;;;;4995437;28;20043;-74
2021/12/13 04:38:57;;;;;;;22.38;16.75;;;10.10;92.40;;;;;;4991968;28;20031;-72
2021/12/13 04:41:46;;;;;;;26.20;18.17;;;10.10;92.40;;;;;;4990652;28;20046;-74
2021/12/13 04:44:49;;;;;;;25.23;17.60;;;10.10;92.40;;;;;;4991154;28;20038;-73
2021/12/13 04:47:22;;;;;;;25.50;17.45;;;10.10;92.40;;;;;;4982222;28;20073;-75
2021/12/13 04:50:06;;;;;;;23.10;16.17;;;10.10;92.40;;;;;;4982941;28;20034;-73
2021/12/13 04:52:33;;;;;;;22.05;16.45;;;10.10;92.50;;;;;;4991585;28;20057;-74
2021/12/13 04:55:00;;;;;;;24.88;17.13;;;10.10;92.50;;;;;;4992833;28;20030;-73
2021/12/13 04:57:27;;;;;;;25.00;17.42;;;10.10;92.40;;;;;;4992631;28;20053;-74
2021/12/13 04:59:59;;;;;;;25.40;17.55;;;10.10;92.40;;;;;;4991575;28;20046;-73
2021/12/13 05:02:25;;;;;;;27.25;19.05;;;10.10;92.30;;;;;;4981589;28;20051;-72
2021/12/13 05:04:57;;;;;;;25.65;17.45;;;10.10;92.40;;;;;;4991249;28;20051;-74
2021/12/13 05:07:26;;;;;;;24.95;17.23;;;10.10;92.40;;;;;;4988132;28;20042;-75
2021/12/13 05:09:53;;;;;;;25.63;18.20;;;10.10;92.50;;;;;;4987783;28;20039;-72
2021/12/13 05:12:25;;;;;;;25.77;18.92;;;10.00;92.40;;;;;;4986591;28;20043;-74
2021/12/13 05:15:12;;;;;;;26.05;18.60;;;10.00;92.40;;;;;;4993312;28;20043;-74
2021/12/13 05:17:43;;;;;;;26.42;19.63;;;10.00;92.50;;;;;;4985677;28;20031;-72
2021/12/13 05:20:18;;;;;;;28.92;19.35;;;10.00;92.50;;;;;;4982860;28;20035;-75
2021/12/13 05:22:57;;;;;;;29.65;19.90;;;10.00;92.50;;;;;;4988683;28;20050;-73
2021/12/13 05:25:45;;;;;;;31.45;20.35;;;10.00;92.40;;;;;;4990454;28;20042;-73
2021/12/13 05:28:20;;;;;;;30.02;19.92;;;10.00;92.50;;;;;;4993038;28;20022;-74
2021/12/13 05:30:49;;;;;;;26.75;19.45;;;10.00;92.50;;;;;;4985351;28;20035;-72
2021/12/13 05:33:17;;;;;;;29.83;20.75;;;10.00;92.50;;;;;;4987912;28;20050;-72
2021/12/13 05:35:47;;;;;;;30.55;22.27;;;10.00;92.50;;;;;;4984084;28;20094;-74
2021/12/13 05:38:33;;;;;;;27.88;20.25;;;10.00;92.40;;;;;;4987504;28;20053;-73
2021/12/13 05:41:02;;;;;;;28.00;19.95;;;10.00;92.40;;;;;;4981532;28;20046;-73
2021/12/13 05:43:33;;;;;;;28.98;20.13;;;10.00;92.40;;;;;;4982250;28;20121;-74
2021/12/13 05:46:06;;;;;;;27.92;20.27;;;10.00;92.40;;;;;;4988786;28;20038;-72
2021/12/13 05:48:34;;;;;;;29.77;21.38;;;10.00;92.40;;;;;;4990430;28;20037;-72
2021/12/13 05:51:21;;;;;;;29.25;21.30;;;10.00;92.30;;;;;;5002942;28;20054;-73
2021/12/13 05:53:54;;;;;;;29.17;21.63;;;10.00;92.30;;;;;;4985290;28;20459;-72
2021/12/13 05:56:21;;;;;;;30.15;21.45;;;10.00;92.30;;;;;;4985005;28;20051;-73
2021/12/13 05:58:54;;;;;;;32.15;21.98;;;9.90;92.20;;;;;;4993770;28;20034;-73
2021/12/13 06:01:20;;;;;;;33.05;21.98;;;10.00;92.30;;;;;;4990500;28;20034;-73
2021/12/13 06:04:06;;;;;;;29.65;20.80;;;10.00;92.20;;;;;;4997934;28;20039;-73
2021/12/13 06:06:34;;;;;;;32.45;21.15;;;10.00;92.20;;;;;;4989047;28;20030;-73
2021/12/13 06:09:00;;;;;;;34.00;22.70;;;10.00;92.20;;;;;;4991099;28;20181;-71
2021/12/13 06:11:34;;;;;;;32.75;21.70;;;10.00;92.20;;;;;;4989580;28;20110;-72
2021/12/13 06:14:14;;;;;;;34.58;21.92;;;9.90;92.20;;;;;;4987494;28;20054;-72
2021/12/13 06:16:54;;;;;;;31.58;23.02;;;9.90;92.20;;;;;;5000090;28;20043;-72
2021/12/13 06:19:33;;;;;;;33.50;22.42;;;9.90;92.20;;;;;;4990388;28;20039;-70
2021/12/13 06:22:03;;;;;;;29.50;21.60;;;9.90;92.30;;;;;;4995900;28;20034;-72
2021/12/13 06:24:45;;;;;;;31.40;22.23;;;9.90;92.30;;;;;;4992966;28;20042;-72
2021/12/13 06:27:15;;;;;;;31.60;22.45;;;9.90;92.20;;;;;;4987112;28;20031;-72
2021/12/13 06:29:53;;;;;;;33.50;24.05;;;9.90;92.10;;;;;;4987148;28;20051;-73
2021/12/13 06:32:24;;;;;;;32.22;22.35;;;9.90;92.10;;;;;;4982729;28;20042;-74
2021/12/13 06:34:51;;;;;;;32.00;21.95;;;9.90;92.10;;;;;;4984967;28;20081;-73
2021/12/13 06:37:24;;;;;;;33.03;22.52;;;9.90;92.10;;;;;;4996109;28;20041;-72
2021/12/13 06:39:50;;;;;;;31.23;20.70;;;9.90;92.10;;;;;;4985312;28;20083;-73
2021/12/13 06:42:16;;;;;;;34.22;23.25;;;9.90;92.10;;;;;;4988420;28;20050;-72
2021/12/13 06:44:45;;;;;;;34.72;24.80;;;9.90;92.10;;;;;;4991859;28;20122;-73
2021/12/13 06:47:16;;;;;;;33.47;23.50;;;9.90;92.00;;;;;;4985278;28;20042;-72
2021/12/13 06:49:42;;;;;;;34.88;23.98;;;9.90;92.00;;;;;;4996326;28;20042;-73
2021/12/13 06:52:32;;;;;;;33.05;22.95;;;9.90;92.00;;;;;;4992484;28;20035;-73
2021/12/13 06:55:05;;;;;;;34.38;22.63;;;9.80;92.10;;;;;;4991221;28;20327;-74
2021/12/13 06:57:35;;;;;;;35.28;23.65;;;9.90;92.10;;;;;;4990216;28;20119;-73
2021/12/13 07:00:06;;;;;;;34.70;23.35;;;9.90;92.10;;;;;;4997065;28;20323;-71
2021/12/13 07:02:46;;;;;;;37.25;24.45;;;9.80;92.00;;;;;;4993916;28;20039;-71
2021/12/13 07:05:30;;;;;;;34.72;24.65;;;9.80;91.90;;;;;;5001494;28;20050;-72
2021/12/13 07:08:02;;;;;;;40.42;26.10;;;9.80;92.00;;;;;;4989906;28;20022;-73
2021/12/13 07:10:34;;;;;;;37.83;25.08;;;9.80;92.00;;;;;;4994811;28;20039;-73
2021/12/13 07:13:05;;;;;;;38.78;25.45;;;9.80;91.90;;;;;;4989494;28;20101;-72
2021/12/13 07:15:43;;;;;;;36.50;25.40;;;9.80;92.00;;;;;;4990002;28;20039;-72
2021/12/13 07:18:29;;;;;;;35.17;23.75;;;9.80;91.80;;;;;;4989822;28;20046;-73
2021/12/13 07:21:11;;;;;;;40.25;25.70;;;9.80;91.90;;;;;;4998039;28;20042;-74
2021/12/13 07:23:53;;;;;;;41.20;26.30;;;9.90;91.90;;;;;;4992820;28;20061;-72
2021/12/13 07:26:31;;;;;;;36.53;24.58;;;9.80;91.80;;;;;;4989961;28;20053;-72
2021/12/13 07:29:00;;;;;;;37.22;25.25;;;9.80;91.80;;;;;;4985543;28;20088;-72
2021/12/13 07:31:27;;;;;;;38.92;24.45;;;9.80;91.70;;;;;;4987750;28;20098;-73
2021/12/13 07:34:06;;;;;;;38.67;24.58;;;9.80;91.60;;;;;;4987361;28;20070;-73
2021/12/13 07:36:32;;;;;;;40.65;25.88;;;9.80;91.70;;;;;;4989865;28;20436;-72
2021/12/13 07:39:07;;;;;;;35.50;24.40;;;9.80;91.70;;;;;;4989326;28;20046;-73
2021/12/13 07:41:48;;;;;;;34.00;23.35;;;9.80;91.70;;;;;;4991632;28;20034;-72
2021/12/13 07:44:31;;;;;;;36.80;24.63;;;9.80;91.60;;;;;;4998109;28;20046;-74
2021/12/13 07:47:06;;;;;;;39.35;25.92;;;9.80;91.60;;;;;;4994492;28;20031;-74
2021/12/13 07:49:37;;;;;;;39.53;25.63;;;9.80;91.70;;;;;;4989245;28;20041;-73
2021/12/13 07:52:06;;;;;;;35.13;24.52;;;9.80;91.60;;;;;;4993256;28;20041;-73
2021/12/13 07:54:44;;;;;;;38.58;25.65;;;9.80;91.60;;;;;;4987825;28;20055;-72
2021/12/13 07:57:29;;;;;;;41.72;26.63;;;9.80;91.50;;;;;;4987198;28;20091;-75
2021/12/13 07:59:57;;;;;;;38.97;25.83;;;9.80;91.50;;;;;;4991173;28;20039;-73
2021/12/13 08:02:30;;;;;;;38.15;25.67;;;9.80;91.40;;;;;;4991153;28;20030;-73
2021/12/13 08:05:13;;;;;;;39.75;26.25;;;9.80;91.40;;;;;;4997208;28;20094;-72
2021/12/13 08:07:46;;;;;;;35.53;24.67;;;9.80;91.50;;;;;;4991974;28;20246;-72
2021/12/13 08:10:23;;;;;;;39.17;26.35;;;9.80;91.40;;;;;;4988195;28;20038;-73
2021/12/13 08:13:17;;;;;;;39.75;25.80;;;9.80;91.50;;;;;;4990974;28;20027;-72
2021/12/13 08:15:56;;;;;;;35.72;25.08;;;9.80;91.40;;;;;;5000697;28;20045;-74
2021/12/13 08:18:28;;;;;;;35.03;24.85;;;9.80;91.40;;;;;;4990786;28;20054;-72
2021/12/13 08:20:56;;;;;;;36.92;24.70;;;9.80;91.40;;;;;;4986848;28;20034;-74
2021/12/13 08:23:26;;;;;;;36.63;24.95;;;9.80;91.50;;;;;;4989211;28;20050;-72
2021/12/13 08:25:58;;;;;;;35.85;23.88;;;9.80;91.50;;;;;;4995743;28;20050;-73
2021/12/13 08:28:40;;;;;;;37.42;26.27;;;9.80;91.50;;;;;;4993326;28;20035;-73
2021/12/13 08:31:20;;;;;;;37.17;25.13;;;9.80;91.40;;;;;;4990331;28;20098;-73
2021/12/13 08:33:57;;;;;;;38.88;26.77;;;9.80;91.40;;;;;;5027113;28;20110;-73
2021/12/13 08:36:35;;;;;;;34.45;24.85;;;9.80;91.30;;;;;;4989124;28;20042;-73
2021/12/13 08:39:13;;;;;;;38.25;24.58;;;9.80;91.40;;;;;;4992410;28;20034;-73
2021/12/13 08:41:44;;;;;;;33.58;23.50;;;9.80;91.30;;;;;;4995949;28;20057;-74
2021/12/13 08:44:10;;;;;;;33.00;23.13;;;9.90;91.30;;;;;;5005117;28;20072;-72
2021/12/13 08:46:40;;;;;;;36.10;24.52;;;9.90;91.10;;;;;;5014804;28;20033;-73
2021/12/13 08:49:30;;;;;;;33.95;22.73;;;9.90;91.10;;;;;;5020770;28;20038;-71
2021/12/13 08:52:14;;;;;;;34.55;24.08;;;9.90;91.00;;;;;;5015472;28;20049;-72
2021/12/13 08:54:55;;;;;;;35.78;23.20;;;10.00;90.90;;;;;;5013236;28;20077;-71
2021/12/13 08:57:45;;;;;;;33.35;22.33;;;9.90;90.80;;;;;;5003957;28;20102;-72
2021/12/13 09:00:17;;;;;;;35.47;23.48;;;9.90;90.90;;;;;;5016947;28;20018;-73
2021/12/13 09:03:05;;;;;;;35.90;23.92;;;9.90;90.80;;;;;;5013544;28;20125;-73
2021/12/13 09:05:38;;;;;;;33.80;23.08;;;10.00;90.80;;;;;;4987819;28;20049;-75
2021/12/13 09:08:13;;;;;;;32.33;21.70;;;10.00;90.70;;;;;;5010272;28;20034;-72
2021/12/13 09:10:58;;;;;;;32.20;21.38;;;10.00;90.70;;;;;;5011279;28;20042;-72
2021/12/13 09:13:39;;;;;;;33.40;21.80;;;10.00;90.70;;;;;;5010789;28;20113;-72
2021/12/13 09:16:05;;;;;;;33.47;22.48;;;10.00;90.60;;;;;;5016287;28;20045;-72
2021/12/13 09:18:31;;;;;;;33.05;21.85;;;10.00;90.50;;;;;;5012063;28;20053;-74
2021/12/13 09:20:58;;;;;;;32.95;22.10;;;10.10;90.50;;;;;;5012176;28;20042;-71
2021/12/13 09:23:37;;;;;;;28.63;19.63;;;10.00;90.50;;;;;;5010251;28;20041;-72
2021/12/13 09:26:05;;;;;;;29.33;20.45;;;10.10;90.50;;;;;;5020297;28;20039;-70
2021/12/13 09:28:42;;;;;;;32.15;21.23;;;10.10;90.20;;;;;;5018676;28;20043;-72
2021/12/13 09:31:32;;;;;;;29.63;20.25;;;10.10;90.20;;;;;;5009880;28;20037;-71
2021/12/13 09:34:13;;;;;;;29.67;20.35;;;10.10;90.30;;;;;;5004082;28;20042;-73
2021/12/13 09:36:41;;;;;;;29.73;19.98;;;10.10;90.10;;;;;;5016460;28;20030;-74
2021/12/13 09:39:09;;;;;;;30.55;20.77;;;10.10;90.10;;;;;;5014234;28;20090;-73
2021/12/13 09:41:52;;;;;;;29.92;19.83;;;10.20;89.90;;;;;;5011795;28;20042;-72
2021/12/13 09:44:32;;;;;;;29.48;20.05;;;10.10;90.00;;;;;;5008619;28;20084;-72
2021/12/13 09:47:04;;;;;;;29.08;20.45;;;10.10;90.00;;;;;;5009575;28;20112;-72
2021/12/13 09:49:39;;;;;;;28.50;20.90;;;10.10;89.90;;;;;;5009835;28;20030;-74
2021/12/13 09:52:07;;;;;;;;;;;10.20;89.80;;;;;;5009546;28;20320;-73
2021/12/13 09:54:38;;;;;;;26.77;18.67;;;10.20;89.70;;;;;;5014276;28;19925;-73
2021/12/13 09:57:13;;;;;;;28.88;19.60;;;10.20;89.70;;;;;;5005807;28;20122;-74
2021/12/13 09:59:52;;;;;;;25.67;17.65;;;10.30;89.50;;;;;;5005625;28;20026;-72
2021/12/13 10:02:40;;;;;;;28.20;18.92;;;10.20;89.50;;;;;;5007786;28;20489;-70
2021/12/13 10:05:16;;;;;;;24.92;18.45;;;10.20;89.60;;;;;;5012248;28;20090;-72
2021/12/13 10:07:48;;;;;;;27.42;18.60;;;10.30;89.50;;;;;;5026810;28;20044;-73
2021/12/13 10:10:29;;;;;;;26.95;18.90;;;10.20;89.50;;;;;;5008038;28;20042;-73
2021/12/13 10:13:03;;;;;;;26.05;17.67;;;10.20;89.50;;;;;;5006561;28;20034;-74
2021/12/13 10:15:34;;;;;;;25.17;19.30;;;10.30;89.40;;;;;;5011635;28;20053;-72
2021/12/13 10:18:07;;;;;;;25.60;17.98;;;10.30;89.30;;;;;;5015208;28;20030;-74
2021/12/13 10:20:37;;;;;;;26.08;19.52;;;10.20;89.30;;;;;;5004898;28;20026;-73
2021/12/13 10:23:07;;;;;;;26.05;18.63;;;10.30;89.40;;;;;;5006561;28;20022;-72
2021/12/13 10:25:40;;;;;;;28.50;18.88;;;10.30;89.40;;;;;;5007498;28;20030;-72
2021/12/13 10:28:13;;;;;;;26.35;17.52;;;10.30;89.30;;;;;;5017973;28;20023;-72
2021/12/13 10:30:45;;;;;;;23.95;17.17;;;10.40;89.20;;;;;;5009922;28;20038;-72
2021/12/13 10:33:11;;;;;;;26.08;17.85;;;10.40;89.10;;;;;;5009278;28;20120;-73
2021/12/13 10:35:40;;;;;;;22.27;16.80;;;10.40;88.80;;;;;;5012206;28;20071;-72
2021/12/13 10:38:14;;;;;;;26.50;16.83;;;10.40;88.80;;;;;;5011022;28;20027;-72
2021/12/13 10:40:47;;;;;;;27.10;17.70;;;10.40;88.60;;;;;;5011832;28;20035;-72
2021/12/13 10:43:20;;;;;;;23.17;17.05;;;10.50;88.60;;;;;;5007285;28;20049;-72
2021/12/13 10:45:55;;;;;;;25.98;18.23;;;10.40;88.70;;;;;;5010487;28;20037;-73
2021/12/13 10:48:27;;;;;;;24.17;17.67;;;10.50;88.60;;;;;;5008287;28;20042;-73
2021/12/13 10:51:07;;;;;;;24.02;16.60;;;10.50;88.60;;;;;;5008830;28;20038;-74
2021/12/13 10:53:34;;;;;;;21.90;15.75;;;10.60;88.60;;;;;;5006761;28;20074;-73
2021/12/13 10:56:10;;;;;;;22.80;16.30;;;10.60;88.40;;;;;;5013789;28;20030;-75
2021/12/13 10:58:40;;;;;;;22.67;15.75;;;10.60;88.40;;;;;;5008480;28;20114;-74
2021/12/13 11:01:11;;;;;;;21.88;15.98;;;10.60;88.30;;;;;;5009200;28;20042;-73
2021/12/13 11:03:38;;;;;;;22.88;15.75;;;10.60;88.20;;;;;;5011610;28;20045;-72
2021/12/13 11:06:07;;;;;;;22.48;15.95;;;10.60;88.10;;;;;;5007545;28;20053;-72
2021/12/13 11:08:41;;;;;;;23.55;16.20;;;10.60;88.00;;;;;;5007834;28;20117;-73
2021/12/13 11:11:31;;;;;;;24.63;16.57;;;10.60;88.10;;;;;;5009543;28;20048;-74
2021/12/13 11:14:04;;;;;;;25.10;16.23;;;10.60;88.20;;;;;;5000693;28;20076;-72
2021/12/13 11:16:41;;;;;;;23.98;15.60;;;10.60;88.10;;;;;;5009331;28;20610;-72
2021/12/13 11:19:15;;;;;;;22.65;15.13;;;10.50;88.20;;;;;;5034891;28;20102;-73
2021/12/13 11:21:43;;;;;;;;;;;10.50;88.20;;;;;;5002188;28;20041;-73
2021/12/13 11:24:16;;;;;;;23.38;14.60;;;10.50;88.10;;;;;;5004799;28;19936;-73
2021/12/13 11:26:44;;;;;;;23.15;16.08;;;10.60;88.20;;;;;;5006508;28;20041;-73
2021/12/13 11:29:14;;;;;;;22.92;16.10;;;10.50;88.20;;;;;;5008366;28;20034;-73
2021/12/13 11:31:48;;;;;;;23.15;15.27;;;10.50;88.40;;;;;;5009108;28;20026;-73
2021/12/13 11:34:40;;;;;;;22.35;16.23;;;10.50;88.50;;;;;;5003527;28;20156;-73
2021/12/13 11:37:36;;;;;;;24.65;16.88;;;10.50;88.50;;;;;;5012840;28;20046;-75
2021/12/13 11:40:28;;;;;;;23.02;15.52;;;10.50;88.40;;;;;;5028379;28;20157;-72
2021/12/13 11:43:28;;;;;;;23.27;15.65;;;10.50;88.50;;;;;;5006448;28;20042;-71
2021/12/13 11:46:20;;;;;;;22.70;14.73;;;10.50;88.30;;;;;;5003180;28;20027;-73
2021/12/13 11:49:11;;;;;;;22.70;16.00;;;10.50;88.30;;;;;;5036613;28;20086;-73
2021/12/13 11:51:55;;;;;;;22.63;15.57;;;10.60;88.30;;;;;;5005160;28;20068;-74
2021/12/13 11:55:04;;;;;;;22.80;14.90;;;10.50;88.30;;;;;;5002662;28;20069;-73
2021/12/13 11:57:57;;;;;;;24.27;17.10;;;10.50;88.20;;;;;;5028133;28;20032;-71
2021/12/13 12:00:56;;;;;;;22.48;16.08;;;10.50;88.40;;;;;;5024551;28;20105;-73
2021/12/13 12:04:00;;;;;;;21.20;14.63;;;10.60;88.50;;;;;;5002083;28;20039;-72
2021/12/13 12:06:44;;;;;;;20.35;15.20;;;10.60;88.40;;;;;;5001617;28;20034;-72
2021/12/13 12:09:22;;;;;;;22.38;15.40;;;10.60;88.50;;;;;;5035486;28;20030;-71
2021/12/13 12:12:09;;;;;;;20.67;14.68;;;10.60;88.40;;;;;;5004578;28;20042;-74
2021/12/13 12:14:35;;;;;;;22.35;16.48;;;10.60;88.50;;;;;;5010337;28;20057;-73
2021/12/13 12:17:03;;;;;;;21.55;15.90;;;10.60;88.50;;;;;;5011991;28;20034;-71
2021/12/13 12:19:33;;;;;;;21.67;16.20;;;10.60;88.40;;;;;;5036484;28;20045;-73
2021/12/13 12:22:05;;;;;;;22.60;16.05;;;10.60;88.50;;;;;;5010417;28;20030;-75
2021/12/13 12:24:44;;;;;;;22.67;15.68;;;10.60;88.50;;;;;;5025224;28;20049;-74
2021/12/13 12:27:13;;;;;;;20.70;15.10;;;10.60;88.40;;;;;;5008860;28;20058;-73
2021/12/13 12:29:44;;;;;;;22.33;16.55;;;10.60;88.40;;;;;;5004346;28;20033;-74
2021/12/13 12:32:20;;;;;;;22.38;15.73;;;10.70;88.30;;;;;;5013744;28;20042;-73
2021/12/13 12:34:53;;;;;;;21.67;15.95;;;10.60;88.40;;;;;;5015057;28;20042;-73
2021/12/13 12:38:05;;;;;;;22.58;16.10;;;10.60;88.50;;;;;;5013723;28;20043;-72
2021/12/13 12:40:45;;;;;;;22.25;15.55;;;10.60;88.50;;;;;;5037397;28;20031;-73
2021/12/13 12:43:15;;;;;;;21.35;16.08;;;10.60;88.50;;;;;;5009553;28;20029;-73
2021/12/13 12:45:57;;;;;;;22.40;16.20;;;10.60;88.60;;;;;;5016621;28;20044;-72
2021/12/13 12:48:34;;;;;;;22.17;16.80;;;10.60;88.60;;;;;;5015219;28;20044;-72
2021/12/13 12:51:33;;;;;;;23.25;17.10;;;10.60;88.70;;;;;;5001731;28;20030;-74
2021/12/13 12:54:09;;;;;;;23.17;16.98;;;10.60;88.60;;;;;;5003063;28;20077;-73
2021/12/13 12:56:42;;;;;;;23.25;17.15;;;10.60;88.70;;;;;;5012875;28;20019;-73
2021/12/13 12:59:23;;;;;;;23.88;17.45;;;10.70;88.70;;;;;;5002131;28;20027;-73
2021/12/13 13:02:04;;;;;;;22.67;17.42;;;10.70;88.60;;;;;;5002873;28;20049;-74
2021/12/13 13:04:41;;;;;;;22.20;17.55;;;10.80;88.80;;;;;;5014322;28;20045;-74
2021/12/13 13:07:10;;;;;;;23.75;17.17;;;10.70;88.70;;;;;;5007027;28;21467;-73
2021/12/13 13:10:00;;;;;;;23.15;17.30;;;10.80;88.70;;;;;;5013190;28;20038;-73
2021/12/13 13:12:29;;;;;;;24.75;18.38;;;10.80;88.60;;;;;;5002560;28;20045;-73
2021/12/13 13:15:05;;;;;;;25.88;18.45;;;10.80;88.50;;;;;;5021045;28;20057;-72
2021/12/13 13:17:34;;;;;;;23.63;17.98;;;10.80;88.60;;;;;;5018141;28;20038;-72
2021/12/13 13:20:11;;;;;;;24.85;18.70;;;10.80;88.60;;;;;;5008689;28;20034;-71